sensor_id;sensor_type;location;lat;lon;timestamp;P1;durP1;ratioP1;P2;durP2;ratioP2
30335;SDS011;17142;47.990;7.846;2023-04-25T05:07:49;4.53;;;2.53;;
30335;SDS011;17142;47.990;7.846;2023-04-25T05:10:17;3.07;;;2.43;;
30335;SDS011;17142;47.990;7.846;2023-04-25T05:12:44;3.40;;;3.10;;
30335;SDS011;17142;47.990;7.846;2023-04-25T05:15:10;2.27;;;2.07;;
30335;SDS011;17142;47.990;7.846;2023-04-25T05:17:38;8.20;;;2.80;;
30335;SDS011;17142;47.990;7.846;2023-04-25T05:20:05;4.63;;;2.80;;
30335;SDS011;17142;47.990;7.846;2023-04-25T05:22:32;3.80;;;3.27;;
30335;SDS011;17142;47.990;7.846;2023-04-25T05:24:58;5.57;;;3.47;;
30335;SDS011;17142;47.990;7.846;2023-04-25T05:27:24;3.93;;;3.23;;
30335;SDS011;17142;47.990;7.846;2023-04-25T05:29:49;5.23;;;2.80;;
30335;SDS011;17142;47.990;7.846;2023-04-25T05:32:15;8.83;;;3.83;;
30335;SDS011;17142;47.990;7.846;2023-04-25T05:34:41;4.27;;;2.37;;
30335;SDS011;17142;47.990;7.846;2023-04-25T05:37:09;7.50;;;3.23;;
30335;SDS011;17142;47.990;7.846;2023-04-25T05:39:34;3.57;;;2.33;;
30335;SDS011;17142;47.990;7.846;2023-04-25T05:42:02;2.23;;;1.87;;
30335;SDS011;17142;47.990;7.846;2023-04-25T05:44:33;5.17;;;1.70;;
30335;SDS011;17142;47.990;7.846;2023-04-25T05:46:58;2.27;;;1.73;;
30335;SDS011;17142;47.990;7.846;2023-04-25T05:49:24;2.33;;;1.80;;
30335;SDS011;17142;47.990;7.846;2023-04-25T05:51:50;1.83;;;1.07;;
30335;SDS011;17142;47.990;7.846;2023-04-25T05:54:15;1.60;;;1.27;;
30335;SDS011;17142;47.990;7.846;2023-04-25T05:56:43;1.47;;;1.27;;
30335;SDS011;17142;47.990;7.846;2023-04-25T05:59:11;1.43;;;1.10;;
30335;SDS011;17142;47.990;7.846;2023-04-25T06:01:37;2.43;;;2.23;;
30335;SDS011;17142;47.990;7.846;2023-04-25T06:04:03;2.70;;;1.20;;
30335;SDS011;17142;47.990;7.846;2023-04-25T06:06:31;1.83;;;1.17;;
30335;SDS011;17142;47.990;7.846;2023-04-25T06:08:56;3.57;;;1.23;;
30335;SDS011;17142;47.990;7.846;2023-04-25T06:11:25;1.70;;;1.60;;
30335;SDS011;17142;47.990;7.846;2023-04-25T06:13:51;2.50;;;0.97;;
30335;SDS011;17142;47.990;7.846;2023-04-25T06:16:19;1.30;;;1.00;;
30335;SDS011;17142;47.990;7.846;2023-04-25T06:18:44;1.60;;;0.90;;
30335;SDS011;17142;47.990;7.846;2023-04-25T06:21:10;1.70;;;1.10;;
30335;SDS011;17142;47.990;7.846;2023-04-25T06:23:36;1.43;;;1.10;;
30335;SDS011;17142;47.990;7.846;2023-04-25T06:26:01;1.20;;;0.80;;
30335;SDS011;17142;47.990;7.846;2023-04-25T06:28:27;1.13;;;0.90;;
30335;SDS011;17142;47.990;7.846;2023-04-25T06:30:53;1.87;;;1.33;;
30335;SDS011;17142;47.990;7.846;2023-04-25T06:33:23;2.30;;;1.10;;
30335;SDS011;17142;47.990;7.846;2023-04-25T06:35:49;7.53;;;1.60;;
30335;SDS011;17142;47.990;7.846;2023-04-25T06:38:15;2.10;;;1.00;;
30335;SDS011;17142;47.990;7.846;2023-04-25T06:40:40;1.77;;;1.10;;
30335;SDS011;17142;47.990;7.846;2023-04-25T06:43:06;2.63;;;0.90;;
30335;SDS011;17142;47.990;7.846;2023-04-25T06:45:32;1.17;;;1.07;;
30335;SDS011;17142;47.990;7.846;2023-04-25T06:47:57;2.07;;;1.73;;
30335;SDS011;17142;47.990;7.846;2023-04-25T06:50:23;1.53;;;1.20;;
30335;SDS011;17142;47.990;7.846;2023-04-25T06:52:49;1.30;;;1.20;;
30335;SDS011;17142;47.990;7.846;2023-04-25T06:55:14;2.27;;;1.13;;
30335;SDS011;17142;47.990;7.846;2023-04-25T06:57:40;1.50;;;1.13;;
30335;SDS011;17142;47.990;7.846;2023-04-25T07:00:08;1.60;;;1.20;;
30335;SDS011;17142;47.990;7.846;2023-04-25T07:02:34;2.43;;;1.70;;
30335;SDS011;17142;47.990;7.846;2023-04-25T07:05:03;1.40;;;1.30;;
30335;SDS011;17142;47.990;7.846;2023-04-25T07:07:32;1.30;;;1.20;;
30335;SDS011;17142;47.990;7.846;2023-04-25T07:09:57;3.30;;;1.30;;
30335;SDS011;17142;47.990;7.846;2023-04-25T07:12:23;1.70;;;1.33;;
30335;SDS011;17142;47.990;7.846;2023-04-25T07:14:48;1.73;;;1.60;;
30335;SDS011;17142;47.990;7.846;2023-04-25T07:17:14;3.00;;;1.90;;
30335;SDS011;17142;47.990;7.846;2023-04-25T07:19:40;2.20;;;1.87;;
30335;SDS011;17142;47.990;7.846;2023-04-25T07:22:06;2.77;;;1.90;;
30335;SDS011;17142;47.990;7.846;2023-04-25T07:24:34;3.57;;;2.30;;
30335;SDS011;17142;47.990;7.846;2023-04-25T07:27:00;2.57;;;2.37;;
30335;SDS011;17142;47.990;7.846;2023-04-25T07:29:28;3.00;;;2.70;;
30335;SDS011;17142;47.990;7.846;2023-04-25T07:31:56;4.00;;;2.90;;
30335;SDS011;17142;47.990;7.846;2023-04-25T07:34:25;3.43;;;2.60;;
30335;SDS011;17142;47.990;7.846;2023-04-25T07:36:51;3.10;;;2.30;;
30335;SDS011;17142;47.990;7.846;2023-04-25T07:39:17;3.53;;;2.90;;
30335;SDS011;17142;47.990;7.846;2023-04-25T07:41:43;3.17;;;2.87;;
30335;SDS011;17142;47.990;7.846;2023-04-25T07:44:08;3.10;;;2.77;;
30335;SDS011;17142;47.990;7.846;2023-04-25T07:46:34;4.10;;;2.67;;
30335;SDS011;17142;47.990;7.846;2023-04-25T07:48:59;5.03;;;2.80;;
30335;SDS011;17142;47.990;7.846;2023-04-25T07:51:25;3.83;;;2.93;;
30335;SDS011;17142;47.990;7.846;2023-04-25T07:53:51;4.90;;;3.70;;
30335;SDS011;17142;47.990;7.846;2023-04-25T07:56:16;3.90;;;2.70;;
30335;SDS011;17142;47.990;7.846;2023-04-25T07:58:42;3.80;;;3.13;;
30335;SDS011;17142;47.990;7.846;2023-04-25T08:01:08;5.83;;;3.80;;
30335;SDS011;17142;47.990;7.846;2023-04-25T08:03:34;7.40;;;3.70;;
30335;SDS011;17142;47.990;7.846;2023-04-25T08:06:00;5.60;;;3.20;;
30335;SDS011;17142;47.990;7.846;2023-04-25T08:08:25;5.10;;;3.53;;
30335;SDS011;17142;47.990;7.846;2023-04-25T08:10:51;2.83;;;2.53;;
30335;SDS011;17142;47.990;7.846;2023-04-25T08:13:16;3.43;;;3.10;;
30335;SDS011;17142;47.990;7.846;2023-04-25T08:15:42;6.80;;;4.33;;
30335;SDS011;17142;47.990;7.846;2023-04-25T08:18:08;5.63;;;3.20;;
30335;SDS011;17142;47.990;7.846;2023-04-25T08:20:35;5.27;;;3.50;;
30335;SDS011;17142;47.990;7.846;2023-04-25T08:23:01;4.60;;;3.30;;
30335;SDS011;17142;47.990;7.846;2023-04-25T08:25:27;7.30;;;3.17;;
30335;SDS011;17142;47.990;7.846;2023-04-25T08:27:52;3.27;;;2.97;;
30335;SDS011;17142;47.990;7.846;2023-04-25T08:30:21;2.77;;;2.57;;
30335;SDS011;17142;47.990;7.846;2023-04-25T08:32:49;3.10;;;2.30;;
30335;SDS011;17142;47.990;7.846;2023-04-25T08:35:14;3.40;;;2.70;;
30335;SDS011;17142;47.990;7.846;2023-04-25T08:37:41;3.60;;;3.00;;
30335;SDS011;17142;47.990;7.846;2023-04-25T08:40:07;5.10;;;3.40;;
30335;SDS011;17142;47.990;7.846;2023-04-25T08:42:36;4.10;;;2.93;;
30335;SDS011;17142;47.990;7.846;2023-04-25T08:45:05;3.43;;;2.47;;
30335;SDS011;17142;47.990;7.846;2023-04-25T08:47:32;3.70;;;2.80;;
30335;SDS011;17142;47.990;7.846;2023-04-25T08:50:03;2.87;;;2.23;;
30335;SDS011;17142;47.990;7.846;2023-04-25T08:52:32;3.57;;;2.90;;
30335;SDS011;17142;47.990;7.846;2023-04-25T08:55:04;2.13;;;1.93;;
30335;SDS011;17142;47.990;7.846;2023-04-25T08:57:35;2.23;;;2.10;;
30335;SDS011;17142;47.990;7.846;2023-04-25T09:00:02;2.30;;;2.10;;
30335;SDS011;17142;47.990;7.846;2023-04-25T09:02:28;4.90;;;2.50;;
30335;SDS011;17142;47.990;7.846;2023-04-25T09:04:54;2.93;;;1.80;;
30335;SDS011;17142;47.990;7.846;2023-04-25T09:07:22;6.07;;;2.60;;
30335;SDS011;17142;47.990;7.846;2023-04-25T09:09:48;2.40;;;2.07;;
30335;SDS011;17142;47.990;7.846;2023-04-25T09:12:13;3.10;;;2.60;;
30335;SDS011;17142;47.990;7.846;2023-04-25T09:14:39;3.80;;;2.70;;
30335;SDS011;17142;47.990;7.846;2023-04-25T09:17:07;3.03;;;2.73;;
30335;SDS011;17142;47.990;7.846;2023-04-25T09:19:36;4.77;;;2.13;;
30335;SDS011;17142;47.990;7.846;2023-04-25T09:22:05;2.60;;;2.40;;
30335;SDS011;17142;47.990;7.846;2023-04-25T09:27:04;3.73;;;2.23;;
30335;SDS011;17142;47.990;7.846;2023-04-25T09:29:32;4.20;;;2.73;;
30335;SDS011;17142;47.990;7.846;2023-04-25T09:32:24;5.23;;;2.80;;
30335;SDS011;17142;47.990;7.846;2023-04-25T09:34:53;3.10;;;2.53;;
30335;SDS011;17142;47.990;7.846;2023-04-25T09:37:29;4.13;;;2.40;;
30335;SDS011;17142;47.990;7.846;2023-04-25T09:39:56;3.00;;;2.33;;
30335;SDS011;17142;47.990;7.846;2023-04-25T09:42:27;2.53;;;1.40;;
30335;SDS011;17142;47.990;7.846;2023-04-25T09:44:59;2.63;;;2.17;;
30335;SDS011;17142;47.990;7.846;2023-04-25T09:47:29;2.60;;;1.93;;
30335;SDS011;17142;47.990;7.846;2023-04-25T09:49:54;1.80;;;1.70;;
30335;SDS011;17142;47.990;7.846;2023-04-25T09:52:21;4.07;;;1.80;;
30335;SDS011;17142;47.990;7.846;2023-04-25T09:54:49;4.30;;;2.20;;
30335;SDS011;17142;47.990;7.846;2023-04-25T09:57:24;2.40;;;1.90;;
30335;SDS011;17142;47.990;7.846;2023-04-25T09:59:54;1.73;;;1.63;;
30335;SDS011;17142;47.990;7.846;2023-04-25T10:02:21;2.60;;;1.90;;
30335;SDS011;17142;47.990;7.846;2023-04-25T10:04:54;1.90;;;1.70;;
30335;SDS011;17142;47.990;7.846;2023-04-25T10:07:22;1.90;;;1.50;;
30335;SDS011;17142;47.990;7.846;2023-04-25T10:09:52;1.13;;;1.03;;
30335;SDS011;17142;47.990;7.846;2023-04-25T10:12:24;2.17;;;1.40;;
30335;SDS011;17142;47.990;7.846;2023-04-25T10:14:53;2.97;;;1.60;;
30335;SDS011;17142;47.990;7.846;2023-04-25T10:17:19;2.37;;;1.10;;
30335;SDS011;17142;47.990;7.846;2023-04-25T10:19:49;1.50;;;1.23;;
30335;SDS011;17142;47.990;7.846;2023-04-25T10:22:32;1.60;;;1.50;;
30335;SDS011;17142;47.990;7.846;2023-04-25T10:25:01;4.30;;;1.93;;
30335;SDS011;17142;47.990;7.846;2023-04-25T10:27:31;1.50;;;1.40;;
30335;SDS011;17142;47.990;7.846;2023-04-25T10:30:14;2.87;;;1.20;;
30335;SDS011;17142;47.990;7.846;2023-04-25T10:32:44;2.90;;;1.67;;
30335;SDS011;17142;47.990;7.846;2023-04-25T10:38:00;2.07;;;1.63;;
30335;SDS011;17142;47.990;7.846;2023-04-25T10:40:34;2.77;;;1.90;;
30335;SDS011;17142;47.990;7.846;2023-04-25T10:46:16;2.07;;;1.43;;
30335;SDS011;17142;47.990;7.846;2023-04-25T10:48:50;3.60;;;2.40;;
30335;SDS011;17142;47.990;7.846;2023-04-25T10:51:31;2.90;;;1.73;;
30335;SDS011;17142;47.990;7.846;2023-04-25T10:56:26;3.53;;;2.47;;
30335;SDS011;17142;47.990;7.846;2023-04-25T11:04:03;2.83;;;2.50;;
30335;SDS011;17142;47.990;7.846;2023-04-25T11:06:53;3.33;;;2.63;;
30335;SDS011;17142;47.990;7.846;2023-04-25T11:09:39;5.00;;;2.43;;
30335;SDS011;17142;47.990;7.846;2023-04-25T11:12:07;2.87;;;2.67;;
30335;SDS011;17142;47.990;7.846;2023-04-25T11:14:33;3.37;;;2.93;;
30335;SDS011;17142;47.990;7.846;2023-04-25T11:16:59;4.20;;;2.77;;
30335;SDS011;17142;47.990;7.846;2023-04-25T11:19:28;3.30;;;2.70;;
30335;SDS011;17142;47.990;7.846;2023-04-25T11:21:55;3.40;;;3.10;;
30335;SDS011;17142;47.990;7.846;2023-04-25T11:24:29;2.73;;;2.10;;
30335;SDS011;17142;47.990;7.846;2023-04-25T11:27:01;4.17;;;2.50;;
30335;SDS011;17142;47.990;7.846;2023-04-25T11:29:31;4.07;;;1.80;;
30335;SDS011;17142;47.990;7.846;2023-04-25T11:31:59;2.30;;;2.10;;
30335;SDS011;17142;47.990;7.846;2023-04-25T11:34:25;2.53;;;2.00;;
30335;SDS011;17142;47.990;7.846;2023-04-25T11:36:55;1.87;;;1.77;;
30335;SDS011;17142;47.990;7.846;2023-04-25T11:39:24;2.23;;;2.03;;
30335;SDS011;17142;47.990;7.846;2023-04-25T11:41:51;1.73;;;1.63;;
30335;SDS011;17142;47.990;7.846;2023-04-25T11:44:20;1.90;;;1.80;;
30335;SDS011;17142;47.990;7.846;2023-04-25T11:46:46;2.60;;;1.80;;
30335;SDS011;17142;47.990;7.846;2023-04-25T11:49:13;3.20;;;2.57;;
30335;SDS011;17142;47.990;7.846;2023-04-25T11:51:44;3.13;;;2.33;;
30335;SDS011;17142;47.990;7.846;2023-04-25T11:54:13;3.07;;;2.47;;
30335;SDS011;17142;47.990;7.846;2023-04-25T11:56:43;3.03;;;2.43;;
30335;SDS011;17142;47.990;7.846;2023-04-25T11:59:12;2.80;;;2.27;;
30335;SDS011;17142;47.990;7.846;2023-04-25T12:01:39;3.23;;;2.93;;
30335;SDS011;17142;47.990;7.846;2023-04-25T12:04:12;2.77;;;2.30;;
30335;SDS011;17142;47.990;7.846;2023-04-25T12:06:44;3.07;;;2.13;;
30335;SDS011;17142;47.990;7.846;2023-04-25T12:09:17;6.10;;;3.20;;
30335;SDS011;17142;47.990;7.846;2023-04-25T12:11:47;3.33;;;2.67;;
30335;SDS011;17142;47.990;7.846;2023-04-25T12:14:20;2.93;;;2.30;;
30335;SDS011;17142;47.990;7.846;2023-04-25T12:16:49;2.33;;;1.83;;
30335;SDS011;17142;47.990;7.846;2023-04-25T12:19:16;3.33;;;2.10;;
30335;SDS011;17142;47.990;7.846;2023-04-25T12:21:45;2.27;;;1.80;;
30335;SDS011;17142;47.990;7.846;2023-04-25T12:24:12;2.80;;;2.00;;
30335;SDS011;17142;47.990;7.846;2023-04-25T12:29:24;2.27;;;2.07;;
30335;SDS011;17142;47.990;7.846;2023-04-25T12:31:54;2.50;;;2.00;;
30335;SDS011;17142;47.990;7.846;2023-04-25T12:34:20;4.63;;;2.27;;
30335;SDS011;17142;47.990;7.846;2023-04-25T12:36:46;1.57;;;1.47;;
30335;SDS011;17142;47.990;7.846;2023-04-25T12:39:22;2.63;;;1.63;;
30335;SDS011;17142;47.990;7.846;2023-04-25T12:41:51;1.90;;;1.80;;
30335;SDS011;17142;47.990;7.846;2023-04-25T12:44:22;2.13;;;1.93;;
30335;SDS011;17142;47.990;7.846;2023-04-25T12:46:48;1.90;;;1.70;;
30335;SDS011;17142;47.990;7.846;2023-04-25T12:49:16;1.43;;;1.33;;
30335;SDS011;17142;47.990;7.846;2023-04-25T12:51:41;1.97;;;1.50;;
30335;SDS011;17142;47.990;7.846;2023-04-25T12:54:07;2.23;;;1.60;;
30335;SDS011;17142;47.990;7.846;2023-04-25T12:56:35;1.57;;;1.10;;
30335;SDS011;17142;47.990;7.846;2023-04-25T12:59:01;2.20;;;1.30;;
30335;SDS011;17142;47.990;7.846;2023-04-25T13:01:30;1.63;;;1.10;;
30335;SDS011;17142;47.990;7.846;2023-04-25T13:03:56;1.63;;;1.20;;
30335;SDS011;17142;47.990;7.846;2023-04-25T13:06:22;1.67;;;1.33;;
30335;SDS011;17142;47.990;7.846;2023-04-25T13:08:48;1.30;;;1.20;;
30335;SDS011;17142;47.990;7.846;2023-04-25T13:11:14;1.53;;;0.83;;
30335;SDS011;17142;47.990;7.846;2023-04-25T13:13:40;1.10;;;1.00;;
30335;SDS011;17142;47.990;7.846;2023-04-25T13:16:06;1.90;;;1.40;;
30335;SDS011;17142;47.990;7.846;2023-04-25T13:18:32;2.30;;;1.17;;
30335;SDS011;17142;47.990;7.846;2023-04-25T13:20:58;2.63;;;1.70;;
30335;SDS011;17142;47.990;7.846;2023-04-25T13:23:25;4.23;;;2.80;;
30335;SDS011;17142;47.990;7.846;2023-04-25T13:25:52;3.10;;;1.47;;
30335;SDS011;17142;47.990;7.846;2023-04-25T13:28:18;2.87;;;2.00;;
30335;SDS011;17142;47.990;7.846;2023-04-25T13:30:44;1.90;;;1.53;;
30335;SDS011;17142;47.990;7.846;2023-04-25T13:33:10;1.13;;;1.03;;
30335;SDS011;17142;47.990;7.846;2023-04-25T13:35:36;1.00;;;0.77;;
30335;SDS011;17142;47.990;7.846;2023-04-25T13:38:03;0.93;;;0.80;;
30335;SDS011;17142;47.990;7.846;2023-04-25T13:40:29;1.23;;;1.00;;
30335;SDS011;17142;47.990;7.846;2023-04-25T13:42:58;1.30;;;1.17;;
30335;SDS011;17142;47.990;7.846;2023-04-25T13:45:26;1.60;;;0.90;;
30335;SDS011;17142;47.990;7.846;2023-04-25T13:47:52;1.70;;;1.10;;
30335;SDS011;17142;47.990;7.846;2023-04-25T13:50:18;1.93;;;1.20;;
30335;SDS011;17142;47.990;7.846;2023-04-25T13:52:43;0.77;;;0.70;;
30335;SDS011;17142;47.990;7.846;2023-04-25T13:55:10;3.20;;;1.17;;
30335;SDS011;17142;47.990;7.846;2023-04-25T13:57:38;1.10;;;0.97;;
30335;SDS011;17142;47.990;7.846;2023-04-25T14:00:04;1.13;;;0.70;;
30335;SDS011;17142;47.990;7.846;2023-04-25T14:02:34;2.40;;;0.90;;
30335;SDS011;17142;47.990;7.846;2023-04-25T14:05:00;1.33;;;0.93;;
30335;SDS011;17142;47.990;7.846;2023-04-25T14:07:33;1.00;;;0.80;;
30335;SDS011;17142;47.990;7.846;2023-04-25T14:10:00;0.73;;;0.50;;
30335;SDS011;17142;47.990;7.846;2023-04-25T14:12:26;0.90;;;0.87;;
30335;SDS011;17142;47.990;7.846;2023-04-25T14:14:51;1.80;;;0.73;;
30335;SDS011;17142;47.990;7.846;2023-04-25T14:17:20;2.30;;;1.00;;
30335;SDS011;17142;47.990;7.846;2023-04-25T14:19:46;1.40;;;0.90;;
30335;SDS011;17142;47.990;7.846;2023-04-25T14:22:13;0.87;;;0.70;;
30335;SDS011;17142;47.990;7.846;2023-04-25T14:24:39;0.90;;;0.90;;
30335;SDS011;17142;47.990;7.846;2023-04-25T14:27:07;0.93;;;0.70;;
30335;SDS011;17142;47.990;7.846;2023-04-25T14:29:33;1.00;;;0.90;;
30335;SDS011;17142;47.990;7.846;2023-04-25T14:31:58;1.13;;;0.73;;
30335;SDS011;17142;47.990;7.846;2023-04-25T14:34:25;0.80;;;0.70;;
30335;SDS011;17142;47.990;7.846;2023-04-25T14:36:51;1.43;;;1.03;;
30335;SDS011;17142;47.990;7.846;2023-04-25T14:39:17;1.50;;;1.03;;
30335;SDS011;17142;47.990;7.846;2023-04-25T14:41:43;2.50;;;0.83;;
30335;SDS011;17142;47.990;7.846;2023-04-25T14:44:09;1.07;;;1.00;;
30335;SDS011;17142;47.990;7.846;2023-04-25T14:46:37;4.27;;;1.30;;
30335;SDS011;17142;47.990;7.846;2023-04-25T14:49:03;2.27;;;1.30;;
30335;SDS011;17142;47.990;7.846;2023-04-25T14:51:31;1.63;;;1.20;;
30335;SDS011;17142;47.990;7.846;2023-04-25T14:53:59;1.73;;;1.60;;
30335;SDS011;17142;47.990;7.846;2023-04-25T14:56:25;1.87;;;1.63;;
30335;SDS011;17142;47.990;7.846;2023-04-25T14:58:52;2.30;;;1.30;;
30335;SDS011;17142;47.990;7.846;2023-04-25T15:01:21;2.70;;;1.20;;
30335;SDS011;17142;47.990;7.846;2023-04-25T15:03:49;1.57;;;1.10;;
30335;SDS011;17142;47.990;7.846;2023-04-25T15:06:15;1.23;;;1.13;;
30335;SDS011;17142;47.990;7.846;2023-04-25T15:08:41;1.10;;;1.00;;
30335;SDS011;17142;47.990;7.846;2023-04-25T15:11:07;1.40;;;1.20;;
30335;SDS011;17142;47.990;7.846;2023-04-25T15:13:32;1.97;;;1.77;;
30335;SDS011;17142;47.990;7.846;2023-04-25T15:15:59;1.97;;;1.50;;
30335;SDS011;17142;47.990;7.846;2023-04-25T15:18:27;2.40;;;1.70;;
30335;SDS011;17142;47.990;7.846;2023-04-25T15:20:53;1.90;;;1.40;;
30335;SDS011;17142;47.990;7.846;2023-04-25T15:23:18;3.27;;;1.93;;
30335;SDS011;17142;47.990;7.846;2023-04-25T15:25:46;2.87;;;2.13;;
30335;SDS011;17142;47.990;7.846;2023-04-25T15:28:12;2.47;;;2.27;;
30335;SDS011;17142;47.990;7.846;2023-04-25T15:30:41;2.30;;;2.10;;
30335;SDS011;17142;47.990;7.846;2023-04-25T15:33:07;2.20;;;1.80;;
30335;SDS011;17142;47.990;7.846;2023-04-25T15:35:32;3.77;;;1.90;;
30335;SDS011;17142;47.990;7.846;2023-04-25T15:37:58;2.60;;;2.13;;
30335;SDS011;17142;47.990;7.846;2023-04-25T15:40:24;3.30;;;2.20;;
30335;SDS011;17142;47.990;7.846;2023-04-25T15:42:50;2.97;;;1.93;;
30335;SDS011;17142;47.990;7.846;2023-04-25T15:45:17;1.77;;;1.60;;
30335;SDS011;17142;47.990;7.846;2023-04-25T15:47:48;2.40;;;1.77;;
30335;SDS011;17142;47.990;7.846;2023-04-25T15:50:15;3.63;;;1.50;;
30335;SDS011;17142;47.990;7.846;2023-04-25T15:52:41;4.40;;;2.23;;
30335;SDS011;17142;47.990;7.846;2023-04-25T15:55:10;2.40;;;2.07;;
30335;SDS011;17142;47.990;7.846;2023-04-25T15:57:39;2.67;;;2.47;;
30335;SDS011;17142;47.990;7.846;2023-04-25T16:00:06;2.13;;;1.93;;
30335;SDS011;17142;47.990;7.846;2023-04-25T16:02:35;3.50;;;2.70;;
30335;SDS011;17142;47.990;7.846;2023-04-25T16:05:02;5.40;;;2.60;;
30335;SDS011;17142;47.990;7.846;2023-04-25T16:07:30;3.20;;;2.40;;
30335;SDS011;17142;47.990;7.846;2023-04-25T16:09:55;2.80;;;2.60;;
30335;SDS011;17142;47.990;7.846;2023-04-25T16:12:23;2.13;;;1.63;;
30335;SDS011;17142;47.990;7.846;2023-04-25T16:14:49;4.87;;;2.93;;
30335;SDS011;17142;47.990;7.846;2023-04-25T16:17:17;2.13;;;1.93;;
30335;SDS011;17142;47.990;7.846;2023-04-25T16:19:42;1.90;;;1.50;;
30335;SDS011;17142;47.990;7.846;2023-04-25T16:22:08;3.53;;;1.80;;
30335;SDS011;17142;47.990;7.846;2023-04-25T16:24:35;4.07;;;1.80;;
30335;SDS011;17142;47.990;7.846;2023-04-25T16:27:00;2.10;;;1.50;;
30335;SDS011;17142;47.990;7.846;2023-04-25T16:29:27;2.47;;;1.50;;
30335;SDS011;17142;47.990;7.846;2023-04-25T16:31:56;1.53;;;1.33;;
30335;SDS011;17142;47.990;7.846;2023-04-25T16:34:21;1.67;;;1.57;;
30335;SDS011;17142;47.990;7.846;2023-04-25T16:36:51;1.73;;;1.03;;
30335;SDS011;17142;47.990;7.846;2023-04-25T16:39:17;2.07;;;1.50;;
30335;SDS011;17142;47.990;7.846;2023-04-25T16:41:45;2.80;;;1.47;;
30335;SDS011;17142;47.990;7.846;2023-04-25T16:44:11;1.33;;;1.10;;
30335;SDS011;17142;47.990;7.846;2023-04-25T16:46:37;4.47;;;2.80;;
30335;SDS011;17142;47.990;7.846;2023-04-25T16:49:03;4.77;;;3.00;;
30335;SDS011;17142;47.990;7.846;2023-04-25T16:51:29;2.40;;;1.60;;
30335;SDS011;17142;47.990;7.846;2023-04-25T16:53:58;3.33;;;1.47;;
30335;SDS011;17142;47.990;7.846;2023-04-25T16:56:27;1.63;;;1.47;;
30335;SDS011;17142;47.990;7.846;2023-04-25T16:58:52;1.60;;;1.43;;
30335;SDS011;17142;47.990;7.846;2023-04-25T17:01:18;2.23;;;1.70;;
30335;SDS011;17142;47.990;7.846;2023-04-25T17:03:45;1.80;;;1.53;;
30335;SDS011;17142;47.990;7.846;2023-04-25T17:06:15;1.67;;;1.30;;
30335;SDS011;17142;47.990;7.846;2023-04-25T17:08:43;2.60;;;1.60;;
30335;SDS011;17142;47.990;7.846;2023-04-25T17:11:09;2.73;;;1.80;;
30335;SDS011;17142;47.990;7.846;2023-04-25T17:13:35;1.83;;;1.73;;
30335;SDS011;17142;47.990;7.846;2023-04-25T17:16:01;2.23;;;1.90;;
30335;SDS011;17142;47.990;7.846;2023-04-25T17:18:27;2.73;;;2.03;;
30335;SDS011;17142;47.990;7.846;2023-04-25T17:20:53;2.50;;;2.00;;
30335;SDS011;17142;47.990;7.846;2023-04-25T17:23:19;2.43;;;2.07;;
30335;SDS011;17142;47.990;7.846;2023-04-25T17:25:47;2.67;;;1.83;;
30335;SDS011;17142;47.990;7.846;2023-04-25T17:28:15;2.50;;;1.90;;
30335;SDS011;17142;47.990;7.846;2023-04-25T17:30:41;1.93;;;1.63;;
30335;SDS011;17142;47.990;7.846;2023-04-25T17:33:08;2.30;;;1.43;;
30335;SDS011;17142;47.990;7.846;2023-04-25T17:35:34;3.03;;;2.23;;
30335;SDS011;17142;47.990;7.846;2023-04-25T17:38:00;4.67;;;3.20;;
30335;SDS011;17142;47.990;7.846;2023-04-25T17:40:28;3.80;;;3.17;;
30335;SDS011;17142;47.990;7.846;2023-04-25T17:42:54;4.60;;;3.40;;
30335;SDS011;17142;47.990;7.846;2023-04-25T17:45:20;2.73;;;2.53;;
30335;SDS011;17142;47.990;7.846;2023-04-25T17:47:45;3.50;;;2.87;;
30335;SDS011;17142;47.990;7.846;2023-04-25T17:50:13;4.17;;;2.70;;
30335;SDS011;17142;47.990;7.846;2023-04-25T17:52:41;3.53;;;3.23;;
30335;SDS011;17142;47.990;7.846;2023-04-25T17:55:08;4.30;;;3.30;;
30335;SDS011;17142;47.990;7.846;2023-04-25T17:57:34;3.80;;;2.57;;
30335;SDS011;17142;47.990;7.846;2023-04-25T18:00:00;3.07;;;2.77;;
30335;SDS011;17142;47.990;7.846;2023-04-25T18:02:26;2.60;;;2.40;;
30335;SDS011;17142;47.990;7.846;2023-04-25T18:04:55;3.27;;;2.97;;
30335;SDS011;17142;47.990;7.846;2023-04-25T18:07:20;3.90;;;2.87;;
30335;SDS011;17142;47.990;7.846;2023-04-25T18:09:46;2.73;;;2.50;;
30335;SDS011;17142;47.990;7.846;2023-04-25T18:12:12;3.67;;;3.20;;
30335;SDS011;17142;47.990;7.846;2023-04-25T18:14:39;3.47;;;3.17;;
30335;SDS011;17142;47.990;7.846;2023-04-25T18:17:07;4.93;;;3.07;;
30335;SDS011;17142;47.990;7.846;2023-04-25T18:19:35;3.27;;;2.90;;
30335;SDS011;17142;47.990;7.846;2023-04-25T18:22:01;3.30;;;2.70;;
30335;SDS011;17142;47.990;7.846;2023-04-25T18:24:27;2.50;;;2.13;;
30335;SDS011;17142;47.990;7.846;2023-04-25T18:26:54;4.80;;;2.70;;
30335;SDS011;17142;47.990;7.846;2023-04-25T18:29:24;3.00;;;2.80;;
30335;SDS011;17142;47.990;7.846;2023-04-25T18:31:52;3.27;;;3.00;;
30335;SDS011;17142;47.990;7.846;2023-04-25T18:34:18;3.23;;;2.80;;
30335;SDS011;17142;47.990;7.846;2023-04-25T18:36:45;3.27;;;2.90;;
30335;SDS011;17142;47.990;7.846;2023-04-25T18:39:13;5.03;;;3.27;;
30335;SDS011;17142;47.990;7.846;2023-04-25T18:41:41;4.17;;;3.50;;
30335;SDS011;17142;47.990;7.846;2023-04-25T18:44:07;3.33;;;2.90;;
30335;SDS011;17142;47.990;7.846;2023-04-25T18:46:35;3.37;;;3.07;;
30335;SDS011;17142;47.990;7.846;2023-04-25T18:49:05;4.53;;;2.97;;
30335;SDS011;17142;47.990;7.846;2023-04-25T18:51:30;3.77;;;2.90;;
30335;SDS011;17142;47.990;7.846;2023-04-25T18:53:57;2.90;;;2.50;;
30335;SDS011;17142;47.990;7.846;2023-04-25T18:56:23;3.40;;;2.30;;
30335;SDS011;17142;47.990;7.846;2023-04-25T18:58:52;3.50;;;2.80;;
30335;SDS011;17142;47.990;7.846;2023-04-25T19:01:18;3.53;;;2.40;;
30335;SDS011;17142;47.990;7.846;2023-04-25T19:03:45;2.63;;;2.20;;
30335;SDS011;17142;47.990;7.846;2023-04-25T19:06:21;2.17;;;2.00;;
30335;SDS011;17142;47.990;7.846;2023-04-25T19:08:51;3.10;;;2.60;;
30335;SDS011;17142;47.990;7.846;2023-04-25T19:11:21;3.97;;;2.83;;
30335;SDS011;17142;47.990;7.846;2023-04-25T19:13:48;5.10;;;3.80;;
30335;SDS011;17142;47.990;7.846;2023-04-25T19:16:14;3.33;;;2.60;;
30335;SDS011;17142;47.990;7.846;2023-04-25T19:18:41;2.90;;;2.50;;
30335;SDS011;17142;47.990;7.846;2023-04-25T19:21:07;3.23;;;2.90;;
30335;SDS011;17142;47.990;7.846;2023-04-25T19:23:36;3.23;;;2.40;;
30335;SDS011;17142;47.990;7.846;2023-04-25T19:26:02;4.00;;;3.60;;
30335;SDS011;17142;47.990;7.846;2023-04-25T19:28:28;4.63;;;2.60;;
30335;SDS011;17142;47.990;7.846;2023-04-25T19:30:55;3.20;;;2.60;;
30335;SDS011;17142;47.990;7.846;2023-04-25T19:33:24;2.73;;;2.53;;
30335;SDS011;17142;47.990;7.846;2023-04-25T19:35:51;3.13;;;2.40;;
30335;SDS011;17142;47.990;7.846;2023-04-25T19:38:18;3.77;;;3.47;;
30335;SDS011;17142;47.990;7.846;2023-04-25T19:40:46;6.70;;;6.10;;
30335;SDS011;17142;47.990;7.846;2023-04-25T19:43:12;4.00;;;2.73;;
30335;SDS011;17142;47.990;7.846;2023-04-25T19:45:40;3.87;;;3.30;;
30335;SDS011;17142;47.990;7.846;2023-04-25T19:48:06;3.93;;;3.50;;
30335;SDS011;17142;47.990;7.846;2023-04-25T19:50:34;4.23;;;3.77;;
30335;SDS011;17142;47.990;7.846;2023-04-25T19:52:59;3.90;;;3.50;;
30335;SDS011;17142;47.990;7.846;2023-04-25T19:55:25;3.23;;;2.93;;
30335;SDS011;17142;47.990;7.846;2023-04-25T19:57:52;4.40;;;2.87;;
30335;SDS011;17142;47.990;7.846;2023-04-25T20:00:18;3.07;;;2.70;;
30335;SDS011;17142;47.990;7.846;2023-04-25T20:02:45;2.67;;;2.47;;
30335;SDS011;17142;47.990;7.846;2023-04-25T20:05:12;3.43;;;3.07;;
30335;SDS011;17142;47.990;7.846;2023-04-25T20:07:41;2.77;;;2.30;;
30335;SDS011;17142;47.990;7.846;2023-04-25T20:10:10;3.00;;;2.47;;
30335;SDS011;17142;47.990;7.846;2023-04-25T20:12:40;4.53;;;3.33;;
30335;SDS011;17142;47.990;7.846;2023-04-25T20:15:09;4.57;;;4.17;;